createdAt,value
2022-10-01T00:02:11.228Z,100316.53
2022-10-01T00:04:39.905Z,100314.16
2022-10-01T00:07:10.938Z,100298.50
2022-10-01T00:09:39.324Z,100309.41
2022-10-01T00:12:08.907Z,100300.75
2022-10-01T00:14:39.522Z,100302.16
2022-10-01T00:17:07.370Z,100293.09
2022-10-01T00:19:35.401Z,100294.31
2022-10-01T00:22:03.398Z,100288.97
2022-10-01T00:24:31.187Z,100273.03
2022-10-01T00:26:58.945Z,100267.59
2022-10-01T00:29:26.667Z,100262.16
2022-10-01T00:31:56.052Z,100259.31
2022-10-01T00:34:23.888Z,100247.63
2022-10-01T00:36:51.744Z,100230.38
2022-10-01T00:39:19.497Z,100233.44
2022-10-01T00:41:48.042Z,100230.38
2022-10-01T00:44:34.605Z,100218.34
2022-10-01T00:47:10.578Z,100197.44
2022-10-01T00:49:40.064Z,100185.84
2022-10-01T00:52:14.277Z,100179.50
2022-10-01T00:54:46.585Z,100174.75
2022-10-01T00:57:17.856Z,100167.03
2022-10-01T00:59:47.081Z,100175.88
2022-10-01T01:02:16.274Z,100168.41
2022-10-01T01:04:44.874Z,100172.38
2022-10-01T01:07:13.377Z,100160.25
2022-10-01T01:09:44.465Z,100163.63
2022-10-01T01:12:24.852Z,100164.34
2022-10-01T01:15:02.960Z,100150.97
2022-10-01T01:17:37.984Z,100145.88
2022-10-01T01:20:27.152Z,100136.78
2022-10-01T01:23:07.196Z,100136.25
2022-10-01T01:25:42.388Z,100114.72
2022-10-01T01:28:23.595Z,100119.25
2022-10-01T01:30:54.259Z,100111.53
2022-10-01T01:33:25.807Z,100123.13
2022-10-01T01:35:58.200Z,100117.66
2022-10-01T01:38:30.136Z,100106.47
2022-10-01T01:41:01.604Z,100110.41
2022-10-01T01:43:33.492Z,100105.44
2022-10-01T01:46:03.431Z,100096.78
2022-10-01T01:48:33.312Z,100090.13
2022-10-01T01:51:06.024Z,100091.34
2022-10-01T01:53:34.596Z,100091.81
2022-10-01T01:56:02.796Z,100080.44
2022-10-01T01:58:35.240Z,100078.44
2022-10-01T02:01:03.982Z,100074.44
2022-10-01T02:03:34.344Z,100086.94
2022-10-01T02:06:13.039Z,100080.97
2022-10-01T02:08:49.328Z,100079.63
2022-10-01T02:11:24.948Z,100088.03
2022-10-01T02:14:04.586Z,100080.00
2022-10-01T02:16:39.742Z,100094.06
2022-10-01T02:19:15.956Z,100085.09
2022-10-01T02:21:55.669Z,100089.66
2022-10-01T02:24:34.048Z,100083.88
2022-10-01T02:27:04.714Z,100086.22
2022-10-01T02:29:36.567Z,100076.28
2022-10-01T02:32:04.446Z,100078.22
2022-10-01T02:34:33.891Z,100069.50
2022-10-01T02:37:05.140Z,100060.75
2022-10-01T02:39:35.243Z,100054.53
2022-10-01T02:42:07.637Z,100037.41
2022-10-01T02:44:40.314Z,100029.34
2022-10-01T02:47:13.369Z,100041.16
2022-10-01T02:49:42.345Z,100037.53
2022-10-01T02:52:17.916Z,100017.31
2022-10-01T02:54:51.227Z,100011.97
2022-10-01T02:57:26.954Z,99986.44
2022-10-01T02:59:59.238Z,99970.91
2022-10-01T03:02:27.957Z,99985.94
2022-10-01T03:04:56.718Z,99986.63
2022-10-01T03:07:25.422Z,99988.22
2022-10-01T03:09:53.444Z,99992.94
2022-10-01T03:12:21.860Z,99982.97
2022-10-01T03:14:49.825Z,99983.56
2022-10-01T03:17:19.684Z,99982.78
2022-10-01T03:19:47.492Z,99985.94
2022-10-01T03:22:18.191Z,99988.66
2022-10-01T03:24:45.909Z,99996.13
2022-10-01T03:27:13.774Z,99993.78
2022-10-01T03:29:41.758Z,99994.22
2022-10-01T03:32:09.534Z,99993.66
2022-10-01T03:34:38.680Z,99984.69
2022-10-01T03:37:06.739Z,99954.16
2022-10-01T03:39:34.759Z,99945.28
2022-10-01T03:42:02.532Z,99921.66
2022-10-01T03:44:30.256Z,99916.28
2022-10-01T03:46:58.174Z,99903.81
2022-10-01T03:49:25.918Z,99907.63
2022-10-01T03:51:55.259Z,99917.59
2022-10-01T03:54:23.460Z,99914.44
2022-10-01T03:56:52.321Z,99899.25
2022-10-01T03:59:20.348Z,99889.41
2022-10-01T04:01:48.241Z,99906.09
2022-10-01T04:04:17.084Z,99914.28
2022-10-01T04:06:44.969Z,99919.25
2022-10-01T04:09:14.151Z,99920.75
2022-10-01T04:11:41.969Z,99914.16
2022-10-01T04:14:09.798Z,99918.72
2022-10-01T04:16:37.602Z,99923.38
2022-10-01T04:19:06.235Z,99914.09
2022-10-01T04:21:34.270Z,99912.03
2022-10-01T04:24:05.103Z,99913.53
2022-10-01T04:26:34.276Z,99914.69
2022-10-01T04:29:02.037Z,99902.91
2022-10-01T04:31:34.817Z,99901.66
2022-10-01T04:34:03.219Z,99895.00
2022-10-01T04:36:31.090Z,99907.13
2022-10-01T04:39:02.439Z,99902.91
2022-10-01T04:41:31.806Z,99895.72
2022-10-01T04:44:01.467Z,99883.66
2022-10-01T04:46:30.438Z,99882.19
2022-10-01T04:48:58.449Z,99892.31
2022-10-01T04:51:26.246Z,99895.03
2022-10-01T04:53:54.120Z,99899.31
2022-10-01T04:56:21.892Z,99895.47
2022-10-01T04:58:49.716Z,99900.91
2022-10-01T05:01:18.849Z,99893.97
2022-10-01T05:03:46.744Z,99906.47
2022-10-01T05:06:14.666Z,99898.63
2022-10-01T05:08:42.471Z,99900.19
2022-10-01T05:11:10.237Z,99900.19
2022-10-01T05:13:38.001Z,99911.09
2022-10-01T05:16:06.094Z,99915.66
2022-10-01T05:18:35.234Z,99906.00
2022-10-01T05:21:05.902Z,99915.66
2022-10-01T05:23:33.907Z,99909.50
2022-10-01T05:26:02.590Z,99925.16
2022-10-01T05:28:30.996Z,99928.06
2022-10-01T05:31:00.495Z,99928.94
2022-10-01T05:33:28.635Z,99932.56
2022-10-01T05:35:57.902Z,99929.84
2022-10-01T05:38:26.039Z,99936.50
2022-10-01T05:40:53.831Z,99933.88
2022-10-01T05:43:21.596Z,99944.06
2022-10-01T05:45:49.873Z,99939.84
2022-10-01T05:48:17.766Z,99946.09
2022-10-01T05:50:46.666Z,99946.44
2022-10-01T05:53:16.135Z,99953.13
2022-10-01T05:55:44.171Z,99954.03
2022-10-01T05:58:13.701Z,99953.34
2022-10-01T06:00:43.334Z,99957.06
2022-10-01T06:03:13.401Z,99962.66
2022-10-01T06:05:41.258Z,99963.53
2022-10-01T06:08:10.735Z,99959.66
2022-10-01T06:10:40.618Z,99951.13
2022-10-01T06:13:08.977Z,99955.47
2022-10-01T06:15:39.526Z,99955.09
2022-10-01T06:18:09.077Z,99958.25
2022-10-01T06:20:37.021Z,99952.81
2022-10-01T06:23:07.420Z,99964.50
2022-10-01T06:25:36.474Z,99956.75
2022-10-01T06:28:07.401Z,99963.44
2022-10-01T06:30:36.884Z,99960.72
2022-10-01T06:33:06.424Z,99955.28
2022-10-01T06:35:35.144Z,99963.09
2022-10-01T06:38:03.340Z,99968.53
2022-10-01T06:40:31.936Z,99965.47
2022-10-01T06:42:59.939Z,99963.19
2022-10-01T06:45:30.457Z,99969.44
2022-10-01T06:48:02.574Z,99972.59
2022-10-01T06:50:31.355Z,99974.97
2022-10-01T06:52:59.040Z,99976.19
2022-10-01T06:55:29.085Z,99975.13
2022-10-01T06:57:58.609Z,99971.25
2022-10-01T07:00:26.778Z,99975.56
2022-10-01T07:02:56.642Z,99973.31
2022-10-01T07:05:25.381Z,99979.19
2022-10-01T07:07:53.727Z,99988.25
2022-10-01T07:10:23.275Z,99987.91
2022-10-01T07:12:52.001Z,99987.91
2022-10-01T07:15:22.830Z,99988.31
2022-10-01T07:17:51.910Z,100004.31
2022-10-01T07:20:22.231Z,99987.97
2022-10-01T07:22:57.169Z,100002.06
2022-10-01T07:25:25.606Z,99995.78
2022-10-01T07:27:56.860Z,100001.34
2022-10-01T07:30:24.995Z,100004.41
2022-10-01T07:32:52.797Z,100015.41
2022-10-01T07:35:22.466Z,100015.84
2022-10-01T07:37:51.149Z,100015.56
2022-10-01T07:40:19.637Z,100017.16
2022-10-01T07:42:55.313Z,100019.53
2022-10-01T07:45:23.694Z,100023.91
2022-10-01T07:47:58.364Z,100024.81
2022-10-01T07:50:30.501Z,100022.25
2022-10-01T07:52:59.526Z,100022.41
2022-10-01T07:55:32.856Z,100017.13
2022-10-01T07:58:02.285Z,100025.19
2022-10-01T08:00:32.928Z,100020.75
2022-10-01T08:03:00.912Z,100021.34
2022-10-01T08:05:33.908Z,100018.72
2022-10-01T08:08:03.129Z,100027.00
2022-10-01T08:10:34.466Z,100026.63
2022-10-01T08:13:02.409Z,100025.56
2022-10-01T08:15:30.349Z,100026.84
2022-10-01T08:17:58.191Z,100032.00
2022-10-01T08:20:26.021Z,100041.78
2022-10-01T08:22:55.520Z,100039.78
2022-10-01T08:25:23.300Z,100036.75
2022-10-01T08:27:51.195Z,100046.28
2022-10-01T08:30:19.138Z,100057.78
2022-10-01T08:32:46.916Z,100048.50
2022-10-01T08:35:16.821Z,100061.00
2022-10-01T08:37:45.247Z,100064.25
2022-10-01T08:40:14.633Z,100065.94
2022-10-01T08:42:52.180Z,100072.94
2022-10-01T08:45:26.517Z,100076.53
2022-10-01T08:48:01.690Z,100075.31
2022-10-01T08:50:37.462Z,100092.56
2022-10-01T08:53:15.322Z,100081.56
2022-10-01T08:55:46.479Z,100082.34
2022-10-01T08:58:24.900Z,100080.00
2022-10-01T09:00:53.025Z,100085.47
2022-10-01T09:03:21.164Z,100085.97
2022-10-01T09:06:13.293Z,100085.59
2022-10-01T09:08:54.648Z,100087.16
2022-10-01T09:11:46.785Z,100091.78
2022-10-01T09:14:46.849Z,100094.88
2022-10-01T09:17:24.550Z,100095.66
2022-10-01T09:20:04.334Z,100102.28
2022-10-01T09:22:39.873Z,100103.44
2022-10-01T09:25:22.600Z,100113.16
2022-10-01T09:27:52.735Z,100109.69
2022-10-01T09:30:23.543Z,100112.50
2022-10-01T09:32:57.309Z,100113.38
2022-10-01T09:35:32.834Z,100115.41
2022-10-01T09:38:04.748Z,100122.59
2022-10-01T09:40:37.104Z,100129.63
2022-10-01T09:43:08.763Z,100120.66
2022-10-01T09:45:38.220Z,100120.19
2022-10-01T09:48:19.890Z,100125.63
2022-10-01T09:50:55.779Z,100125.63
2022-10-01T09:53:30.766Z,100125.63
2022-10-01T09:56:04.302Z,100130.72
2022-10-01T09:58:37.886Z,100136.25
2022-10-01T10:01:12.880Z,100130.84
2022-10-01T10:03:40.748Z,100119.63
2022-10-01T10:06:10.315Z,100118.06
2022-10-01T10:08:40.638Z,100116.69
2022-10-01T10:11:11.797Z,100118.69
2022-10-01T10:13:44.648Z,100125.44
2022-10-01T10:16:24.592Z,100132.94
2022-10-01T10:18:53.497Z,100142.41
2022-10-01T10:21:25.436Z,100145.56
2022-10-01T10:23:55.338Z,100146.34
2022-10-01T10:26:29.734Z,100143.44
2022-10-01T10:29:01.814Z,100153.84
2022-10-01T10:31:36.703Z,100164.47
2022-10-01T10:34:09.381Z,100159.81
2022-10-01T10:36:38.232Z,100162.66
2022-10-01T10:39:08.198Z,100169.38
2022-10-01T10:41:36.828Z,100171.81
2022-10-01T10:44:09.081Z,100169.16
2022-10-01T10:46:44.042Z,100167.63
2022-10-01T10:49:21.938Z,100176.41
2022-10-01T10:51:53.927Z,100178.38
2022-10-01T10:54:25.427Z,100183.41
2022-10-01T10:56:55.482Z,100183.19
2022-10-01T10:59:25.170Z,100175.09
2022-10-01T11:01:53.813Z,100182.16
2022-10-01T11:04:28.886Z,100180.22
2022-10-01T11:07:01.164Z,100188.53
2022-10-01T11:09:40.251Z,100166.63
2022-10-01T11:12:17.314Z,100173.00
2022-10-01T11:14:57.742Z,100183.28
2022-10-01T11:17:47.746Z,100178.28
2022-10-01T11:20:32.437Z,100194.38
2022-10-01T11:23:22.246Z,100199.03
2022-10-01T11:25:58.891Z,100181.09
2022-10-01T11:28:38.929Z,100192.47
2022-10-01T11:31:16.920Z,100193.78
2022-10-01T11:34:01.458Z,100185.16
2022-10-01T11:36:37.175Z,100191.03
2022-10-01T11:39:11.105Z,100184.31
2022-10-01T11:41:44.115Z,100192.94
2022-10-01T11:44:18.510Z,100192.13
2022-10-01T11:46:54.467Z,100185.75
2022-10-01T11:49:47.968Z,100206.78
2022-10-01T11:52:33.337Z,100219.72
2022-10-01T11:55:32.214Z,100217.81
2022-10-01T11:58:24.440Z,100220.69
2022-10-01T12:01:01.744Z,100215.25
2022-10-01T12:03:37.815Z,100229.06
2022-10-01T12:06:09.448Z,100224.41
2022-10-01T12:08:39.910Z,100225.22
2022-10-01T12:11:17.747Z,100224.84
2022-10-01T12:13:53.109Z,100234.72
2022-10-01T12:16:30.288Z,100233.63
2022-10-01T12:19:04.331Z,100226.16
2022-10-01T12:21:38.310Z,100228.22
2022-10-01T12:24:12.838Z,100226.25
2022-10-01T12:26:49.763Z,100236.50
2022-10-01T12:29:25.125Z,100234.50
2022-10-01T12:32:04.060Z,100241.97
2022-10-01T12:34:49.317Z,100256.06
2022-10-01T12:37:35.831Z,100247.47
2022-10-01T12:40:19.625Z,100257.34
2022-10-01T12:43:24.104Z,100264.03
2022-10-01T12:45:57.322Z,100264.88
2022-10-01T12:48:32.488Z,100279.81
2022-10-01T12:51:22.318Z,100278.25
2022-10-01T12:54:03.533Z,100281.47
2022-10-01T12:56:37.966Z,100278.38
2022-10-01T12:59:16.932Z,100289.72
2022-10-01T13:02:00.231Z,100294.03
2022-10-01T13:05:05.512Z,100299.09
2022-10-01T13:07:50.244Z,100308.25
2022-10-01T13:10:32.003Z,100310.63
2022-10-01T13:13:06.453Z,100325.16
2022-10-01T13:15:38.299Z,100320.44
2022-10-01T13:18:22.071Z,100324.84
2022-10-01T13:20:58.460Z,100320.16
2022-10-01T13:23:36.196Z,100328.81
2022-10-01T13:26:10.305Z,100317.44
2022-10-01T13:28:53.949Z,100333.94
2022-10-01T13:31:35.123Z,100352.41
2022-10-01T13:34:03.358Z,100345.66
2022-10-01T13:36:33.127Z,100354.59
2022-10-01T13:39:03.145Z,100364.81
2022-10-01T13:41:33.599Z,100371.94
2022-10-01T13:44:16.365Z,100378.25
2022-10-01T13:46:52.180Z,100383.81
2022-10-01T13:49:28.790Z,100380.75
2022-10-01T13:51:57.402Z,100382.75
2022-10-01T13:54:29.026Z,100382.03
2022-10-01T13:56:56.930Z,100380.09
2022-10-01T13:59:34.480Z,100378.53
2022-10-01T14:02:03.050Z,100389.59
2022-10-01T14:04:37.601Z,100386.84
2022-10-01T14:07:15.328Z,100403.75
2022-10-01T14:09:47.183Z,100401.03
2022-10-01T14:12:37.126Z,100412.50
2022-10-01T14:15:34.370Z,100408.19
2022-10-01T14:18:05.553Z,100421.19
2022-10-01T14:20:37.343Z,100410.97
2022-10-01T14:23:11.960Z,100408.63
2022-10-01T14:25:53.642Z,100408.66
2022-10-01T14:28:32.955Z,100419.69
2022-10-01T14:31:08.413Z,100419.69
2022-10-01T14:33:54.045Z,100439.38
2022-10-01T14:36:29.500Z,100444.84
2022-10-01T14:39:05.643Z,100457.03
2022-10-01T14:41:36.279Z,100459.44
2022-10-01T14:44:20.277Z,100454.66
2022-10-01T14:46:48.112Z,100452.28
2022-10-01T14:49:24.459Z,100460.47
2022-10-01T14:51:56.185Z,100453.38
2022-10-01T14:54:24.828Z,100453.28
2022-10-01T14:56:54.929Z,100463.50
2022-10-01T14:59:32.369Z,100464.22
2022-10-01T15:02:02.942Z,100468.50
2022-10-01T15:04:30.791Z,100483.00
2022-10-01T15:07:05.425Z,100482.53
2022-10-01T15:09:35.086Z,100490.78
2022-10-01T15:12:07.033Z,100490.34
2022-10-01T15:14:34.952Z,100494.69
2022-10-01T15:17:05.034Z,100502.47
2022-10-01T15:19:34.279Z,100503.91
2022-10-01T15:22:03.683Z,100514.50
2022-10-01T15:24:40.998Z,100510.06
2022-10-01T15:27:12.257Z,100524.94
2022-10-01T15:29:42.102Z,100514.69
2022-10-01T15:32:11.717Z,100523.34
2022-10-01T15:34:41.368Z,100520.19
2022-10-01T15:37:18.469Z,100522.53
2022-10-01T15:39:51.225Z,100524.13
2022-10-01T15:42:26.785Z,100534.28
2022-10-01T15:45:21.457Z,100538.22
2022-10-01T15:47:51.782Z,100541.38
2022-10-01T15:50:22.031Z,100535.06
2022-10-01T15:52:55.552Z,100545.97
2022-10-01T15:55:31.549Z,100560.06
2022-10-01T15:58:07.034Z,100552.81
2022-10-01T16:00:43.445Z,100559.91
2022-10-01T16:03:23.320Z,100569.31
2022-10-01T16:05:54.955Z,100566.16
2022-10-01T16:08:25.767Z,100574.81
2022-10-01T16:11:17.088Z,100576.22
2022-10-01T16:13:48.818Z,100581.78
2022-10-01T16:16:25.761Z,100595.47
2022-10-01T16:18:56.315Z,100589.63
2022-10-01T16:21:24.537Z,100609.19
2022-10-01T16:23:53.541Z,100605.28
2022-10-01T16:26:37.799Z,100610.66
2022-10-01T16:29:19.661Z,100610.66
2022-10-01T16:31:47.782Z,100620.81
2022-10-01T16:34:18.318Z,100616.03
2022-10-01T16:36:46.603Z,100622.28
2022-10-01T16:39:15.390Z,100625.34
2022-10-01T16:41:45.238Z,100620.59
2022-10-01T16:44:15.155Z,100633.09
2022-10-01T16:46:43.412Z,100629.16
2022-10-01T16:49:15.100Z,100640.56
2022-10-01T16:51:43.484Z,100635.38
2022-10-01T16:54:21.845Z,100641.94
2022-10-01T16:56:50.556Z,100648.09
2022-10-01T16:59:22.747Z,100652.25
2022-10-01T17:01:54.626Z,100658.06
2022-10-01T17:04:23.754Z,100661.84
2022-10-01T17:06:51.742Z,100668.81
2022-10-01T17:09:19.530Z,100676.91
2022-10-01T17:11:47.933Z,100680.69
2022-10-01T17:14:17.993Z,100678.31
2022-10-01T17:16:47.608Z,100684.03
2022-10-01T17:19:15.857Z,100695.63
2022-10-01T17:21:43.732Z,100691.97
2022-10-01T17:24:11.548Z,100704.44
2022-10-01T17:26:40.616Z,100716.06
2022-10-01T17:29:09.165Z,100719.13
2022-10-01T17:31:38.120Z,100724.50
2022-10-01T17:34:08.353Z,100727.56
2022-10-01T17:36:36.367Z,100731.81
2022-10-01T17:39:04.808Z,100734.47
2022-10-01T17:41:32.555Z,100740.66
2022-10-01T17:44:00.346Z,100752.38
2022-10-01T17:46:28.182Z,100757.75
2022-10-01T17:48:55.980Z,100759.19
2022-10-01T17:51:25.921Z,100763.09
2022-10-01T17:53:54.929Z,100766.97
2022-10-01T17:56:23.095Z,100779.47
2022-10-01T17:58:50.972Z,100777.00
2022-10-01T18:01:21.970Z,100787.91
2022-10-01T18:03:53.835Z,100796.38
2022-10-01T18:06:21.678Z,100800.97
2022-10-01T18:08:55.451Z,100805.59
2022-10-01T18:11:25.038Z,100808.59
2022-10-01T18:13:53.302Z,100806.22
2022-10-01T18:16:21.658Z,100819.38
2022-10-01T18:19:51.924Z,100814.47
2022-10-01T18:21:37.326Z,100814.22
2022-10-01T18:24:07.054Z,100818.81
2022-10-01T18:26:35.097Z,100829.69
2022-10-01T18:29:03.691Z,100842.13
2022-10-01T18:31:36.677Z,100848.31
2022-10-01T18:34:13.397Z,100848.31
2022-10-01T18:36:48.706Z,100850.56
2022-10-01T18:39:24.883Z,100848.13
2022-10-01T18:41:52.722Z,100853.13
2022-10-01T18:44:21.577Z,100869.13
2022-10-01T18:47:15.110Z,100871.91
2022-10-01T18:49:59.833Z,100864.84
2022-10-01T18:52:38.340Z,100874.19
2022-10-01T18:55:30.525Z,100877.28
2022-10-01T18:58:23.183Z,100888.13
2022-10-01T19:01:01.882Z,100897.03
2022-10-01T19:03:53.435Z,100897.28
2022-10-01T19:06:40.706Z,100901.16
2022-10-01T19:09:22.581Z,100895.69
2022-10-01T19:12:00.899Z,100895.94
2022-10-01T19:14:47.484Z,100907.56
2022-10-01T19:17:32.493Z,100912.03
2022-10-01T19:20:21.470Z,100910.81
2022-10-01T19:23:03.955Z,100915.72
2022-10-01T19:25:37.433Z,100915.59
2022-10-01T19:28:18.161Z,100921.31
2022-10-01T19:31:04.373Z,100922.69
2022-10-01T19:33:36.820Z,100937.03
2022-10-01T19:36:06.804Z,100942.72
2022-10-01T19:38:38.550Z,100941.94
2022-10-01T19:41:14.842Z,100941.34
2022-10-01T19:43:51.771Z,100936.56
2022-10-01T19:46:26.469Z,100942.03
2022-10-01T19:49:00.647Z,100944.31
2022-10-01T19:51:33.934Z,100945.00
2022-10-01T19:54:03.536Z,100951.16
2022-10-01T19:56:34.806Z,100950.22
2022-10-01T19:59:08.607Z,100949.31
2022-10-01T20:01:40.171Z,100950.78
2022-10-01T20:04:15.832Z,100950.69
2022-10-01T20:06:47.238Z,100959.09
2022-10-01T20:09:27.026Z,100968.44
2022-10-01T20:12:05.484Z,100963.41
2022-10-01T20:15:05.331Z,100974.56
2022-10-01T20:17:47.827Z,100970.56
2022-10-01T20:20:23.453Z,100973.66
2022-10-01T20:23:04.407Z,100979.31
2022-10-01T20:25:42.247Z,100986.72
2022-10-01T20:28:20.421Z,100974.88
2022-10-01T20:30:59.141Z,100985.69
2022-10-01T20:33:37.517Z,100988.41
2022-10-01T20:36:12.679Z,100992.28
2022-10-01T20:38:47.134Z,101001.13
2022-10-01T20:41:18.175Z,100997.16
2022-10-01T20:43:49.411Z,101004.09
2022-10-01T20:46:34.797Z,101007.03
2022-10-01T20:49:05.584Z,101000.88
2022-10-01T20:51:37.172Z,101008.63
2022-10-01T20:54:12.437Z,101005.44
2022-10-01T20:56:43.185Z,101010.91
2022-10-01T20:59:19.201Z,101013.16
2022-10-01T21:02:02.525Z,101013.81
2022-10-01T21:04:34.348Z,101024.59
2022-10-01T21:07:21.162Z,101029.94
2022-10-01T21:09:54.176Z,101023.53
2022-10-01T21:12:28.067Z,101036.75
2022-10-01T21:14:57.026Z,101035.50
2022-10-01T21:17:44.176Z,101032.59
2022-10-01T21:20:45.138Z,101039.22
2022-10-01T21:23:26.493Z,101037.41
2022-10-01T21:26:06.409Z,101039.00
2022-10-01T21:28:52.868Z,101039.00
2022-10-01T21:31:35.430Z,101043.00
2022-10-01T21:34:12.942Z,101045.41
2022-10-01T21:36:57.106Z,101055.53
2022-10-01T21:39:33.003Z,101056.81
2022-10-01T21:42:15.014Z,101063.84
2022-10-01T21:45:08.214Z,101057.94
2022-10-01T21:47:50.600Z,101061.94
2022-10-01T21:50:35.077Z,101063.19
2022-10-01T21:53:39.028Z,101071.25
2022-10-01T21:56:20.479Z,101077.06
2022-10-01T21:59:01.381Z,101078.16
2022-10-01T22:01:46.312Z,101085.91
2022-10-01T22:04:20.906Z,101082.69
2022-10-01T22:06:54.266Z,101081.75
2022-10-01T22:09:34.309Z,101084.50
2022-10-01T22:12:06.091Z,101090.44
2022-10-01T22:14:34.407Z,101091.22
2022-10-01T22:17:08.670Z,101095.91
2022-10-01T22:19:40.045Z,101088.81
2022-10-01T22:22:13.089Z,101103.13
2022-10-01T22:24:47.382Z,101105.56
2022-10-01T22:27:21.211Z,101111.69
2022-10-01T22:29:55.692Z,101113.47
2022-10-01T22:32:27.013Z,101111.41
2022-10-01T22:35:00.387Z,101116.03
2022-10-01T22:37:38.501Z,101118.97
2022-10-01T22:40:13.335Z,101111.94
2022-10-01T22:42:45.242Z,101123.50
2022-10-01T22:45:17.515Z,101118.06
2022-10-01T22:48:02.785Z,101114.38
2022-10-01T22:50:43.445Z,101122.13
2022-10-01T22:53:28.440Z,101121.19
2022-10-01T22:55:57.986Z,101124.38
2022-10-01T22:58:36.702Z,101123.59
2022-10-01T23:01:15.576Z,101124.22
2022-10-01T23:04:07.305Z,101130.34
2022-10-01T23:06:42.143Z,101121.81
2022-10-01T23:09:16.852Z,101123.41
2022-10-01T23:11:57.624Z,101127.28
2022-10-01T23:14:42.798Z,101123.63
2022-10-01T23:17:14.965Z,101130.00
2022-10-01T23:19:59.007Z,101130.34
2022-10-01T23:22:42.570Z,101125.22
2022-10-01T23:25:20.641Z,101121.53
2022-10-01T23:28:07.031Z,101129.72
2022-10-01T23:30:47.933Z,101127.44
2022-10-01T23:33:33.447Z,101135.16
2022-10-01T23:36:10.235Z,101121.53
2022-10-01T23:38:57.801Z,101138.69
2022-10-01T23:41:33.990Z,101143.34
2022-10-01T23:44:09.107Z,101135.50
2022-10-01T23:46:40.975Z,101138.56
2022-10-01T23:49:15.426Z,101137.75
2022-10-01T23:51:49.512Z,101138.56
2022-10-01T23:54:24.902Z,101136.97
2022-10-01T23:56:57.969Z,101133.09
2022-10-01T23:59:30.012Z,101149.47
